.
WxDataArchive / Data Records for 2014-03-05
2014-03-04 March 2014 2014-03-06

Data Records for Wednesday, 05 March 2014

Time	Temp	Chill	HIndex	Humid	Dewpt	 Wind 	HiWind	WindDir	Rain 	Barom
-----	----	-----	------	-----	-----	------	------	-------	-----	-----
00:00	9.2	9.2	9.2	74	2.6	0	0	---	0.00	30.291 
00:05	9.2	9.2	9.2	74	2.6	0	0	---	0.00	30.291 
00:10	9.2	9.2	9.2	75	2.9	0	0	---	0.00	30.291 
00:15	9.2	9.2	9.2	75	2.9	0	0	---	0.00	30.287 
00:20	9.0	9.0	9.0	75	2.7	0	0	---	0.00	30.287 
00:25	9.0	9.0	9.0	75	2.7	0	0	---	0.00	30.287 
00:30	9.2	9.2	9.2	76	3.2	0	0	---	0.00	30.291 
00:35	9.2	9.2	9.2	76	3.2	0	0	---	0.00	30.291 
00:40	9.3	9.3	9.3	76	3.3	0	0	---	0.00	30.291 
00:45	9.5	9.5	9.5	76	3.5	0	0	---	0.00	30.283 
00:50	9.3	9.3	9.3	75	3.0	0	0	---	0.00	30.283 
00:55	9.3	9.3	9.3	75	3.0	0	0	---	0.00	30.283 
01:00	9.2	9.2	9.2	75	2.9	0	0	---	0.00	30.279 
01:05	9.0	9.0	9.0	75	2.7	0	0	---	0.00	30.279 
01:10	8.8	8.8	8.8	75	2.5	0	0	---	0.00	30.279 
01:15	8.8	8.8	8.8	75	2.5	0	0	---	0.00	30.278 
01:20	9.0	9.0	9.0	75	2.7	0	0	---	0.00	30.278 
01:25	9.0	9.0	9.0	75	2.7	0	0	---	0.00	30.278 
01:30	9.2	9.2	9.2	75	2.9	0	0	---	0.00	30.269 
01:35	9.3	9.3	9.3	75	3.0	0	0	---	0.00	30.269 
01:40	9.3	9.3	9.3	74	2.7	0	0	---	0.00	30.269 
01:45	9.3	9.3	9.3	75	3.0	0	0	---	0.00	30.260 
01:50	9.5	9.5	9.5	74	2.9	0	0	---	0.00	30.260 
01:55	9.7	9.7	9.7	74	3.1	0	0	---	0.00	30.260 
02:00	9.7	9.7	9.7	74	3.1	0	0	---	0.00	30.263 
02:05	9.7	9.7	9.7	74	3.1	0	0	---	0.00	30.263 
02:10	9.7	9.7	9.7	73	2.8	0	0	---	0.00	30.263 
02:15	9.7	9.7	9.7	73	2.8	0	0	---	0.00	30.274 
02:20	9.5	9.5	9.5	73	2.6	0	0	---	0.00	30.274 
02:25	9.5	9.5	9.5	73	2.6	0	0	---	0.00	30.274 
02:30	9.5	9.5	9.5	73	2.6	0	0	---	0.00	30.275 
02:35	9.3	9.3	9.3	73	2.4	0	0	---	0.00	30.275 
02:40	9.3	9.3	9.3	73	2.4	0	0	---	0.00	30.275 
02:45	9.5	9.5	9.5	73	2.6	0	0	---	0.00	30.274 
02:50	9.7	9.7	9.7	73	2.8	0	0	---	0.00	30.274 
02:55	10.0	10.0	10.0	74	3.4	0	0	---	0.00	30.274 
03:00	10.5	10.5	10.5	74	3.9	0	0	---	0.00	30.273 
03:05	10.9	10.9	10.9	74	4.3	0	1	270	0.00	30.273 
03:10	11.6	11.6	11.6	73	4.7	0	1	270	0.00	30.273 
03:15	12.1	12.1	12.1	72	4.8	0	1	270	0.00	30.271 
03:20	12.6	12.6	12.6	71	5.0	0	0	---	0.00	30.271 
03:25	12.9	12.9	12.9	71	5.3	0	0	---	0.00	30.271 
03:30	13.1	13.1	13.1	70	5.2	0	0	---	0.00	30.271 
03:35	13.5	13.5	13.5	69	5.3	0	0	---	0.00	30.271 
03:40	13.6	13.6	13.6	68	5.0	0	0	---	0.00	30.271 
03:45	13.8	13.8	13.8	67	4.9	0	1	270	0.00	30.271 
03:50	13.8	13.8	13.8	67	4.9	0	0	---	0.00	30.271 
03:55	13.8	13.8	13.8	66	4.6	0	0	---	0.00	30.271 
04:00	13.8	13.8	13.8	66	4.6	0	0	---	0.00	30.281 
04:05	14.0	14.0	14.0	66	4.8	0	0	---	0.00	30.281 
04:10	14.0	14.0	14.0	66	4.8	0	0	---	0.00	30.281 
04:15	14.0	14.0	14.0	65	4.4	0	0	---	0.00	30.285 
04:20	14.0	14.0	14.0	65	4.4	0	0	---	0.00	30.285 
04:25	13.8	13.8	13.8	65	4.2	0	0	---	0.00	30.285 
04:30	13.6	13.6	13.6	65	4.1	0	0	---	0.00	30.285 
04:35	13.6	13.6	13.6	65	4.1	0	0	---	0.00	30.285 
04:40	13.5	13.5	13.5	65	4.0	0	0	---	0.00	30.285 
04:45	13.5	13.5	13.5	65	4.0	0	0	---	0.00	30.292 
04:50	13.3	13.3	13.3	64	3.4	0	0	---	0.00	30.292 
04:55	12.9	12.9	12.9	64	3.1	0	0	---	0.00	30.292 
05:00	12.8	12.8	12.8	65	3.3	0	0	---	0.00	30.301 
05:05	12.6	12.6	12.6	65	3.1	0	0	---	0.00	30.301 
05:10	12.4	12.4	12.4	65	2.9	0	0	---	0.00	30.301 
05:15	12.4	12.4	12.4	65	2.9	0	0	---	0.00	30.315 
05:20	12.4	12.4	12.4	65	2.9	0	0	---	0.00	30.315 
05:25	12.6	12.6	12.6	66	3.4	0	0	---	0.00	30.315 
05:30	12.8	12.8	12.8	67	3.9	0	0	---	0.00	30.319 
05:35	13.3	13.3	13.3	67	4.4	0	0	---	0.00	30.319 
05:40	13.6	13.6	13.6	67	4.7	0	0	---	0.00	30.319 
05:45	14.1	14.1	14.1	67	5.2	0	1	270	0.00	30.321 
05:50	14.4	14.4	14.4	66	5.1	0	0	---	0.00	30.321 
05:55	14.6	14.6	14.6	65	5.0	0	1	270	0.00	30.321 
06:00	14.9	14.9	14.9	65	5.3	0	1	270	0.00	30.327 
06:05	15.1	15.1	15.1	64	5.1	0	0	---	0.00	30.327 
06:10	15.2	15.2	15.2	64	5.2	0	0	---	0.00	30.327 
06:15	15.4	15.4	15.4	64	5.4	0	1	270	0.00	30.335 
06:20	15.4	15.4	15.4	64	5.4	0	0	---	0.00	30.335 
06:25	15.6	15.6	15.6	63	5.3	0	1	270	0.00	30.335 
06:30	15.7	15.7	15.7	63	5.4	0	0	---	0.00	30.348 
06:35	15.7	15.7	15.7	63	5.4	0	0	---	0.00	30.348 
06:40	15.9	15.9	15.9	62	5.2	0	2	270	0.00	30.348 
06:45	16.1	16.1	16.1	62	5.4	0	2	270	0.00	30.349 
06:50	16.1	16.1	16.1	62	5.4	0	1	270	0.00	30.349 
06:55	16.2	16.2	16.2	62	5.5	0	2	270	0.00	30.349 
07:00	16.2	16.2	16.2	62	5.5	0	1	270	0.00	30.350 
07:05	16.4	16.4	16.4	62	5.7	0	1	270	0.00	30.350 
07:10	16.4	16.4	16.4	62	5.7	0	1	270	0.00	30.350 
07:15	16.5	16.5	16.5	62	5.8	0	2	270	0.00	30.360 
07:20	16.7	16.7	16.7	62	6.0	0	3	270	0.00	30.360 
07:25	16.9	16.9	16.9	62	6.2	0	1	270	0.00	30.360 
07:30	17.0	17.0	17.0	63	6.6	0	3	270	0.00	30.361 
07:35	17.2	17.2	17.2	63	6.8	1	5	270	0.00	30.361 
07:40	17.2	17.2	17.2	63	6.8	0	3	270	0.00	30.361 
07:45	17.3	17.3	17.3	64	7.2	1	3	270	0.00	30.361 
07:50	17.3	17.3	17.3	64	7.2	0	4	270	0.00	30.361 
07:55	17.5	17.5	17.5	65	7.8	1	3	292	0.00	30.361 
08:00	17.7	17.7	17.7	65	8.0	1	4	292	0.00	30.365 
08:05	17.7	17.7	17.7	66	8.3	1	4	292	0.00	30.365 
08:10	17.8	17.8	17.8	67	8.7	1	4	292	0.00	30.365 
08:15	17.8	17.8	17.8	67	8.7	1	4	112	0.00	30.376 
08:20	18.0	18.0	18.0	68	9.2	1	5	112	0.00	30.376 
08:25	18.0	18.0	18.0	68	9.2	3	7	112	0.00	30.376 
08:30	18.0	18.0	18.0	68	9.2	2	9	112	0.00	30.380 
08:35	18.0	18.0	18.0	69	9.6	3	7	90	0.00	30.380 
08:40	17.8	17.8	17.8	69	9.4	3	7	90	0.00	30.380 
08:45	17.8	17.8	17.8	69	9.4	2	7	112	0.00	30.387 
08:50	17.8	17.8	17.8	70	9.7	2	7	90	0.00	30.387 
08:55	18.0	18.0	18.0	71	10.2	1	5	90	0.00	30.387 
09:00	18.3	18.3	18.3	72	10.8	1	6	90	0.00	30.401 
09:05	18.4	18.4	18.4	72	10.9	1	6	112	0.00	30.401 
09:10	18.6	18.6	18.6	73	11.4	1	5	112	0.00	30.401 
09:15	18.6	18.6	18.6	73	11.4	1	3	112	0.00	30.414 
09:20	18.8	18.8	18.8	73	11.6	1	4	112	0.00	30.414 
09:25	18.8	18.8	18.8	74	11.9	1	4	112	0.00	30.414 
09:30	18.9	18.9	18.9	74	12.0	1	3	112	0.00	30.418 
09:35	18.9	18.9	18.9	75	12.3	1	4	112	0.00	30.418 
09:40	19.1	19.1	19.1	75	12.5	0	2	112	0.00	30.418 
09:45	19.2	19.2	19.2	75	12.6	0	3	112	0.00	30.429 
09:50	19.1	19.1	19.1	76	12.8	1	4	112	0.00	30.429 
09:55	19.1	19.1	19.1	76	12.8	1	3	112	0.00	30.429 
10:00	19.1	19.1	19.1	77	13.1	1	6	90	0.00	30.429 
10:05	19.2	19.2	19.2	78	13.5	0	2	90	0.00	30.429 
10:10	19.4	19.4	19.4	78	13.7	2	5	90	0.00	30.429 
10:15	19.2	19.2	19.2	78	13.5	2	6	90	0.00	30.427 
10:20	19.2	19.2	19.2	79	13.8	2	6	90	0.00	30.427 
10:25	19.2	19.2	19.2	79	13.8	1	6	90	0.00	30.427 
10:30	19.2	19.2	19.2	79	13.8	3	10	90	0.00	30.421 
10:35	19.4	19.4	19.4	79	14.0	3	10	90	0.00	30.421 
10:40	19.9	19.9	19.9	79	14.5	1	5	90	0.00	30.421 
10:45	20.2	20.2	20.2	78	14.5	3	9	112	0.00	30.425 
10:50	20.0	13.0	20.0	76	13.7	5	12	90	0.00	30.425 
10:55	19.9	19.9	19.9	77	13.9	2	9	112	0.00	30.425 
11:00	20.2	20.2	20.2	76	13.9	2	5	22	0.00	30.434 
11:05	20.2	20.2	20.2	75	13.6	2	9	112	0.00	30.434 
11:10	19.9	19.9	19.9	75	13.3	3	8	90	0.00	30.434 
11:15	20.0	20.0	20.0	76	13.7	2	7	68	0.00	30.435 
11:20	20.3	20.3	20.3	76	14.0	1	4	68	0.00	30.435 
11:25	20.3	20.3	20.3	74	13.4	3	7	90	0.00	30.435 
11:30	19.9	12.9	19.9	75	13.3	5	10	90	0.00	30.439 
11:35	19.7	19.7	19.7	76	13.4	3	9	90	0.00	30.439 
11:40	19.5	13.6	19.5	77	13.5	4	7	90	0.00	30.439 
11:45	19.7	19.7	19.7	76	13.4	3	10	112	0.00	30.436 
11:50	19.7	19.7	19.7	77	13.7	3	8	112	0.00	30.436 
11:55	19.7	13.9	19.7	77	13.7	4	10	90	0.00	30.436 
12:00	20.2	20.2	20.2	77	14.2	2	6	112	0.00	30.433 
12:05	20.5	20.5	20.5	76	14.2	2	10	112	0.00	30.433 
12:10	20.6	20.6	20.6	75	14.0	3	9	90	0.00	30.433 
12:15	20.6	14.9	20.6	74	13.7	4	7	90	0.00	30.425 
12:20	20.5	14.8	20.5	74	13.6	4	9	90	0.00	30.425 
12:25	20.5	20.5	20.5	75	13.9	3	7	112	0.00	30.425 
12:30	21.0	21.0	21.0	75	14.3	2	5	112	0.00	30.423 
12:35	21.3	21.3	21.3	74	14.3	2	5	112	0.00	30.423 
12:40	21.4	21.4	21.4	74	14.4	3	12	90	0.00	30.423 
12:45	21.6	21.6	21.6	74	14.6	2	6	90	0.00	30.428 
12:50	21.4	15.8	21.4	74	14.4	4	7	90	0.00	30.428 
12:55	21.3	15.7	21.3	76	14.9	4	10	112	0.00	30.428 
13:00	21.4	21.4	21.4	77	15.3	1	5	90	0.00	30.429 
13:05	21.8	21.8	21.8	77	15.7	2	9	68	0.00	30.429 
13:10	21.9	21.9	21.9	76	15.5	2	6	90	0.00	30.429 
13:15	22.1	22.1	22.1	76	15.7	3	7	90	0.00	30.427 
13:20	22.5	22.5	22.5	77	16.4	1	6	90	0.00	30.427 
13:25	22.4	22.4	22.4	76	16.0	3	9	90	0.00	30.427 
13:30	22.1	16.6	22.1	76	15.7	4	9	112	0.00	30.419 
13:35	21.8	21.8	21.8	76	15.4	3	7	90	0.00	30.419 
13:40	22.1	22.1	22.1	77	16.0	2	6	90	0.00	30.419 
13:45	22.4	22.4	22.4	77	16.3	2	5	90	0.00	30.416 
13:50	22.1	22.1	22.1	77	16.0	3	7	90	0.00	30.416 
13:55	22.1	22.1	22.1	78	16.3	1	4	90	0.00	30.416 
14:00	22.1	22.1	22.1	78	16.3	1	5	112	0.00	30.420 
14:05	22.1	22.1	22.1	77	16.0	3	9	68	0.00	30.420 
14:10	21.6	21.6	21.6	77	15.5	3	10	90	0.00	30.420 
14:15	21.6	21.6	21.6	79	16.1	2	6	68	0.00	30.419 
14:20	21.6	21.6	21.6	78	15.8	1	8	90	0.00	30.419 
14:25	21.8	21.8	21.8	78	16.0	1	5	112	0.00	30.419 
14:30	21.4	21.4	21.4	79	15.9	3	10	112	0.00	30.423 
14:35	21.4	21.4	21.4	79	15.9	2	6	90	0.00	30.423 
14:40	21.4	21.4	21.4	80	16.2	2	5	90	0.00	30.423 
14:45	21.4	21.4	21.4	80	16.2	2	7	90	0.00	30.424 
14:50	21.6	21.6	21.6	79	16.1	1	6	90	0.00	30.424 
14:55	21.6	21.6	21.6	79	16.1	3	9	90	0.00	30.424 
15:00	21.6	21.6	21.6	78	15.8	3	8	90	0.00	30.427 
15:05	21.3	15.7	21.3	78	15.5	4	8	90	0.00	30.427 
15:10	21.4	21.4	21.4	79	15.9	3	7	90	0.00	30.427 
15:15	21.8	21.8	21.8	79	16.3	2	7	45	0.00	30.423 
15:20	21.8	21.8	21.8	78	16.0	3	10	112	0.00	30.423 
15:25	21.8	21.8	21.8	78	16.0	3	9	90	0.00	30.423 
15:30	21.6	16.1	21.6	77	15.5	4	7	90	0.00	30.428 
15:35	21.8	21.8	21.8	77	15.7	1	5	90	0.00	30.428 
15:40	21.9	21.9	21.9	75	15.2	3	7	90	0.00	30.428 
15:45	21.8	21.8	21.8	74	14.8	3	11	112	0.00	30.430 
15:50	21.9	21.9	21.9	74	14.9	2	9	90	0.00	30.430 
15:55	22.1	22.1	22.1	73	14.8	3	9	112	0.00	30.430 
16:00	21.9	21.9	21.9	73	14.6	3	9	90	0.00	30.429 
16:05	21.9	16.4	21.9	72	14.3	4	10	90	0.00	30.429 
16:10	22.1	22.1	22.1	72	14.5	3	9	90	0.00	30.429 
16:15	22.1	22.1	22.1	72	14.5	3	9	90	0.00	30.437 
16:20	22.2	22.2	22.2	71	14.3	2	6	90	0.00	30.437 
16:25	22.4	22.4	22.4	71	14.4	2	6	90	0.00	30.437 
16:30	22.5	22.5	22.5	70	14.2	3	11	90	0.00	30.438 
16:35	22.5	22.5	22.5	69	13.9	3	11	112	0.00	30.438 
16:40	22.5	17.1	22.5	68	13.6	4	9	90	0.00	30.438 
16:45	22.7	22.7	22.7	68	13.8	2	7	90	0.00	30.440 
16:50	22.5	22.5	22.5	67	13.2	3	10	90	0.00	30.440 
16:55	22.5	17.1	22.5	66	12.9	4	10	90	0.00	30.440 
17:00	22.4	17.0	22.4	66	12.8	4	8	90	0.00	30.444 
17:05	22.5	22.5	22.5	66	12.9	3	7	90	0.00	30.444 
17:10	22.5	22.5	22.5	66	12.9	3	9	90	0.00	30.444 
17:15	22.5	22.5	22.5	66	12.9	2	7	90	0.00	30.443 
17:20	22.5	22.5	22.5	66	12.9	1	7	90	0.00	30.443 
17:25	22.5	22.5	22.5	66	12.9	2	7	90	0.00	30.443 
17:30	22.4	22.4	22.4	67	13.1	2	5	90	0.00	30.445 
17:35	22.2	22.2	22.2	67	12.9	3	6	90	0.00	30.445 
17:40	22.1	22.1	22.1	68	13.2	3	7	90	0.00	30.445 
17:45	21.8	16.3	21.8	65	11.9	4	10	90	0.00	30.451 
17:50	21.6	16.1	21.6	64	11.3	4	8	90	0.00	30.451 
17:55	21.4	15.8	21.4	64	11.1	4	9	90	0.00	30.451 
18:00	21.4	15.8	21.4	64	11.1	4	10	90	0.00	30.450 
18:05	21.3	21.3	21.3	64	11.0	3	7	90	0.00	30.450 
18:10	21.1	15.5	21.1	63	10.5	4	8	90	0.00	30.450 
18:15	21.0	15.4	21.0	64	10.8	4	7	90	0.00	30.458 
18:20	20.8	15.1	20.8	63	10.2	4	9	90	0.00	30.458 
18:25	20.6	14.9	20.6	64	10.4	4	7	90	0.00	30.458 
18:30	20.5	14.8	20.5	64	10.3	4	7	90	0.00	30.461 
18:35	20.3	14.6	20.3	64	10.1	4	10	90	0.00	30.461 
18:40	20.2	14.4	20.2	64	10.0	4	11	90	0.00	30.461 
18:45	20.0	13.0	20.0	64	9.8	5	10	90	0.00	30.461 
18:50	20.0	14.2	20.0	64	9.8	4	10	90	0.00	30.461 
18:55	19.9	12.9	19.9	64	9.7	5	12	90	0.00	30.461 
19:00	19.7	13.9	19.7	65	9.9	4	11	90	0.00	30.467 
19:05	19.7	12.6	19.7	65	9.9	5	12	90	0.00	30.467 
19:10	19.5	12.4	19.5	65	9.7	5	10	90	0.00	30.467 
19:15	19.5	12.4	19.5	65	9.7	5	11	90	0.00	30.464 
19:20	19.4	13.5	19.4	66	9.9	4	9	90	0.00	30.464 
19:25	19.4	12.3	19.4	66	9.9	5	10	90	0.00	30.464 
19:30	19.4	12.3	19.4	66	9.9	5	11	90	0.00	30.469 
19:35	19.4	12.3	19.4	66	9.9	5	12	90	0.00	30.469 
19:40	19.4	13.5	19.4	66	9.9	4	9	90	0.00	30.469 
19:45	19.2	12.0	19.2	66	9.7	5	11	90	0.00	30.474 
19:50	19.2	13.3	19.2	67	10.1	4	8	68	0.00	30.474 
19:55	19.2	13.3	19.2	67	10.1	4	10	90	0.00	30.474 
20:00	19.1	13.2	19.1	67	10.0	4	9	90	0.00	30.473 
20:05	19.1	11.9	19.1	67	10.0	5	10	90	0.00	30.473 
20:10	19.1	13.2	19.1	67	10.0	4	9	90	0.00	30.473 
20:15	18.9	18.9	18.9	68	10.1	3	6	90	0.00	30.473 
20:20	18.9	18.9	18.9	68	10.1	3	8	90	0.00	30.473 
20:25	18.8	12.8	18.8	68	10.0	4	10	90	0.00	30.473 
20:30	18.8	12.8	18.8	66	9.4	4	9	90	0.00	30.477 
20:35	18.8	11.6	18.8	68	10.0	5	9	90	0.00	30.477 
20:40	18.8	18.8	18.8	68	10.0	3	11	90	0.00	30.477 
20:45	18.8	11.6	18.8	68	10.0	5	13	90	0.00	30.472 
20:50	18.6	12.6	18.6	69	10.2	4	11	90	0.00	30.472 
20:55	18.6	12.6	18.6	69	10.2	4	12	90	0.00	30.472 
21:00	18.6	11.3	18.6	68	9.8	5	10	90	0.00	30.472 
21:05	18.6	11.3	18.6	68	9.8	5	10	90	0.00	30.472 
21:10	18.6	11.3	18.6	67	9.5	5	12	90	0.00	30.472 
21:15	18.6	11.3	18.6	67	9.5	5	10	90	0.00	30.472 
21:20	18.6	11.3	18.6	67	9.5	5	12	90	0.00	30.472 
21:25	18.4	10.0	18.4	67	9.3	6	13	90	0.00	30.472 
21:30	18.4	11.1	18.4	67	9.3	5	10	90	0.00	30.477 
21:35	18.4	12.4	18.4	67	9.3	4	9	90	0.00	30.477 
21:40	18.3	12.3	18.3	67	9.2	4	10	90	0.00	30.477 
21:45	18.1	10.7	18.1	67	9.0	5	11	90	0.00	30.482 
21:50	18.1	12.0	18.1	68	9.3	4	9	90	0.00	30.482 
21:55	18.0	10.6	18.0	67	8.9	5	13	90	0.00	30.482 
22:00	18.0	10.6	18.0	68	9.2	5	12	90	0.00	30.480 
22:05	17.8	10.4	17.8	67	8.7	5	14	90	0.00	30.480 
22:10	17.7	11.6	17.7	67	8.6	4	7	90	0.00	30.480 
22:15	17.5	17.5	17.5	67	8.4	3	6	90	0.00	30.478 
22:20	17.5	11.3	17.5	67	8.4	4	13	112	0.00	30.478 
22:25	17.5	11.3	17.5	67	8.4	4	10	112	0.00	30.478 
22:30	17.3	11.1	17.3	67	8.3	4	10	90	0.00	30.475 
22:35	17.3	9.8	17.3	67	8.3	5	12	90	0.00	30.475 
22:40	17.3	9.8	17.3	67	8.3	5	11	90	0.00	30.475 
22:45	17.2	11.0	17.2	67	8.2	4	13	90	0.00	30.472 
22:50	17.2	9.7	17.2	67	8.2	5	10	90	0.00	30.472 
22:55	17.0	10.7	17.0	67	8.0	4	10	90	0.00	30.472 
23:00	16.9	16.9	16.9	67	7.9	3	13	90	0.00	30.473 
23:05	16.9	16.9	16.9	67	7.9	3	10	90	0.00	30.473 
23:10	16.7	16.7	16.7	67	7.7	3	8	90	0.00	30.473 
23:15	16.5	16.5	16.5	67	7.5	2	6	90	0.00	30.472 
23:20	16.5	16.5	16.5	67	7.5	3	7	112	0.00	30.472 
23:25	16.4	16.4	16.4	68	7.7	2	7	90	0.00	30.472 
23:30	16.2	16.2	16.2	68	7.5	3	6	112	0.00	30.475 
23:35	16.1	16.1	16.1	68	7.4	1	5	90	0.00	30.475 
23:40	15.9	15.9	15.9	68	7.2	1	3	90	0.00	30.475 
23:45	15.7	15.7	15.7	68	7.0	2	4	90	0.00	30.476 
23:50	15.7	15.7	15.7	68	7.0	2	7	90	0.00	30.476 
23:55	15.6	15.6	15.6	68	7.0	2	5	90	0.00	30.476 

CoCoRaHS
IN-AL-39
A2 Web Hosting
Creative Commons License
GoDaddy
search engine by freefind advanced

loaded 2018-11-14 00:15:47 • last modified 2010-11-18 10:43:29
Privacy PolicyDisclaimer
• wx.awcolley.com is powered by PmWiki v.2002016 •
• all content (unless otherwise noted) © 2018 A W Colley